Wilson Gdynia — 8PSA — position and weather

sailwx.info

Track history (hours):
 
Tides and Currents Weather Stations Pressure Air Temp Water Temp Dewpoint Dewpoint Depression Visibility Wind Speed Wind Dir Waves Ship Positions

Wilson Gdynia

Last reported at 2015-Jan-29 21:33 UTC. Time now 2015-Jan-29 22:29 UTC.
Position N 53°59' E 008°28'.

Length 88 m; draft 5.6 m.

Type: Cargo ship. MMSI: 314192000.

Date/timePositionNaut miles runAvg speedWind from/ knotsBaromVisibWave heightAir tempDewpointWater temp
2015-Jan-29 21:33N 53°59' E 008°28'1110.6
2015-Jan-29 20:33N 53°53' E 008°43'9 8.6
2015-Jan-29 19:33N 53°51' E 008°57'8 8.1
2015-Jan-29 18:33N 53°53' E 009°10'8 8.0
2015-Jan-29 17:33N 53°49' E 009°22'1010.0
2015-Jan-29 16:33N 53°41' E 009°30'1111.1
2015-Jan-29 15:33N 53°34' E 009°45'6 5.5
2015-Jan-29 14:29N 53°31' E 009°54'0 0.0
2015-Jan-29 13:29N 53°31' E 009°54'0 0.0
2015-Jan-29 12:32N 53°31' E 009°54'0 0.0
2015-Jan-29 11:32N 53°31' E 009°54'0 0.0
2015-Jan-29 10:32N 53°31' E 009°54'0 0.0
2015-Jan-29 09:32N 53°31' E 009°54'0 0.0
2015-Jan-29 08:32N 53°31' E 009°54'0 0.0
2015-Jan-29 07:32N 53°31' E 009°54'0 0.0
2015-Jan-29 06:32N 53°31' E 009°54'0 0.0
2015-Jan-29 05:32N 53°31' E 009°54'0 0.0
2015-Jan-29 04:32N 53°31' E 009°54'0 0.0
2015-Jan-29 03:32N 53°31' E 009°54'0 0.0
2015-Jan-29 02:32N 53°31' E 009°54'0 0.0
2015-Jan-29 01:32N 53°31' E 009°54'0 0.0
2015-Jan-29 00:32N 53°31' E 009°54'0 0.0
2015-Jan-28 23:32N 53°31' E 009°54'0 0.0
2015-Jan-28 22:32N 53°31' E 009°54'0 0.0
2015-Jan-28 21:32N 53°31' E 009°54'0 0.0
2015-Jan-28 20:32N 53°31' E 009°54'0 0.0
2015-Jan-28 19:32N 53°31' E 009°54'0 0.0
2015-Jan-28 18:32N 53°31' E 009°54'0 0.0
2015-Jan-28 17:29N 53°31' E 009°54'0 0.0
2015-Jan-28 16:32N 53°31' E 009°54'0 0.0
2015-Jan-28 15:32N 53°31' E 009°54'0 0.0
2015-Jan-28 14:29N 53°31' E 009°54'0 0.0
2015-Jan-28 13:32N 53°31' E 009°54'0 0.0
2015-Jan-28 12:29N 53°31' E 009°54'0 0.0
2015-Jan-28 11:32N 53°31' E 009°54'0 0.0
2015-Jan-28 10:32N 53°31' E 009°54'0 0.0
2015-Jan-28 09:32N 53°31' E 009°54'0 0.0
2015-Jan-28 08:32N 53°31' E 009°54'0 0.0
2015-Jan-28 07:32N 53°31' E 009°54'0 0.0
2015-Jan-28 06:29N 53°31' E 009°54'0 0.0
2015-Jan-28 05:32N 53°31' E 009°54'0 0.0
2015-Jan-28 04:26N 53°31' E 009°54'0 0.0
2015-Jan-28 03:32N 53°31' E 009°54'0 0.0
2015-Jan-28 02:32N 53°31' E 009°54'0 0.0
2015-Jan-28 01:32N 53°31' E 009°54'0 0.0
2015-Jan-28 00:32N 53°31' E 009°54'0 0.0
2015-Jan-27 23:29N 53°31' E 009°54'0 0.0
2015-Jan-27 22:29N 53°31' E 009°54'0 0.0
2015-Jan-27 21:32N 53°31' E 009°54'0 0.0
2015-Jan-27 20:32N 53°31' E 009°54'0 0.0
2015-Jan-27 19:29N 53°31' E 009°54'0 0.0
2015-Jan-27 18:32N 53°31' E 009°54'0 0.3
2015-Jan-27 17:34N 53°31' E 009°54'9 9.2
2015-Jan-27 16:33N 53°34' E 009°39'8 8.3
2015-Jan-27 15:33N 53°41' E 009°30'9 8.8
2015-Jan-27 14:33N 53°48' E 009°22'9 8.5
2015-Jan-27 13:33N 53°53' E 009°10'9 8.8
2015-Jan-27 12:33N 53°51' E 008°56'8 7.8
2015-Jan-27 11:34N 53°53' E 008°43'8 7.5
2015-Jan-27 10:34N 53°58' E 008°34'9 8.8
2015-Jan-27 09:33N 53°60' E 008°19'1010.4
2015-Jan-27 08:33N 53°57' E 008°02'9 8.8
2015-Jan-27 07:33N 53°49' E 008°08'1413.8
2015-Jan-27 06:33N 53°39' E 008°24'10 9.7
2015-Jan-27 05:34N 53°30' E 008°31'1010.3
2015-Jan-27 04:33N 53°20' E 008°30'9 8.9
2015-Jan-27 03:33N 53°11' E 008°32'8 7.5
2015-Jan-27 02:33N 53°07' E 008°43'0 0.4
2015-Jan-27 01:33N 53°07' E 008°43'0 0.0
2015-Jan-27 00:33N 53°07' E 008°43'0 0.0
2015-Jan-26 23:33N 53°07' E 008°43'0 0.0
2015-Jan-26 22:33N 53°07' E 008°43'0 0.0
2015-Jan-26 21:33N 53°07' E 008°43'0 0.0
2015-Jan-26 20:33N 53°07' E 008°43'0 0.0
2015-Jan-26 19:33N 53°07' E 008°43'0 0.0
2015-Jan-26 18:33N 53°07' E 008°43'0 0.0
2015-Jan-26 17:33N 53°07' E 008°43'0 0.0
2015-Jan-26 16:33N 53°07' E 008°43'0 0.0
2015-Jan-26 15:33N 53°07' E 008°43'0 0.0
2015-Jan-26 14:33N 53°07' E 008°43'0 0.0
2015-Jan-26 13:33N 53°07' E 008°43'0 0.0
2015-Jan-26 12:33N 53°07' E 008°43'0 0.0
2015-Jan-26 11:33N 53°07' E 008°43'0 0.0
2015-Jan-26 10:33N 53°07' E 008°43'0 0.0
2015-Jan-26 09:33N 53°07' E 008°43'0 0.0
2015-Jan-26 08:33N 53°07' E 008°43'0 0.0
2015-Jan-26 07:33N 53°07' E 008°43'0 0.0
2015-Jan-26 06:33N 53°07' E 008°43'0 0.0
2015-Jan-26 05:33N 53°07' E 008°43'0 0.0
2015-Jan-26 04:33N 53°07' E 008°43'0 0.0
2015-Jan-26 03:33N 53°07' E 008°43'0 0.0
2015-Jan-26 02:33N 53°07' E 008°43'0 0.0
2015-Jan-26 01:33N 53°07' E 008°43'0 0.0
2015-Jan-26 00:33N 53°07' E 008°43'0 0.0
2015-Jan-25 23:33N 53°07' E 008°43'0 0.0
2015-Jan-25 22:33N 53°07' E 008°43'0 0.0
2015-Jan-25 21:33N 53°07' E 008°43'0 0.0
2015-Jan-25 20:33N 53°07' E 008°43'0 0.0
2015-Jan-25 19:33N 53°07' E 008°43'0 0.0
2015-Jan-25 18:33N 53°07' E 008°43'0 0.0
2015-Jan-25 17:33N 53°07' E 008°43'0 0.0
2015-Jan-25 16:33N 53°07' E 008°43'1 1.2
2015-Jan-25 15:33N 53°07' E 008°41'1010.3
2015-Jan-25 14:33N 53°15' E 008°29'1212.0
2015-Jan-25 13:33N 53°27' E 008°29'1110.7
2015-Jan-25 12:33N 53°37' E 008°28'1313.5
2015-Jan-25 11:33N 53°46' E 008°11'1212.3
2015-Jan-25 10:33N 53°52' E 007°53'1110.2
2015-Jan-25 09:31N 53°58' E 007°38'1010.3
2015-Jan-25 08:33N 54°07' E 007°30'10 9.8
2015-Jan-25 07:34N 54°15' E 007°23'8 8.1
2015-Jan-25 06:33N 54°23' E 007°19'7 7.2
2015-Jan-25 05:34N 54°30' E 007°16'7 7.4
2015-Jan-25 04:33N 54°37' E 007°13'10 7.3
2015-Jan-25 03:14N 54°47' E 007°08'5 7.6
2015-Jan-25 02:34N 54°52' E 007°06'8 7.9
2015-Jan-25 01:33N 54°59' E 007°02'8 8.2
2015-Jan-25 00:33N 55°07' E 006°59'8 8.2
2015-Jan-24 23:34N 55°15' E 006°55'8 8.1
2015-Jan-24 22:33N 55°23' E 006°52'8 7.8
2015-Jan-24 21:33N 55°31' E 006°48'8 7.5
2015-Jan-24 20:30N 55°38' E 006°45'150 6.4
2015-Jan-23 21:07N 58°04' E 005°42'15 3.8
2015-Jan-23 17:11N 58°18' E 005°34'4 4.7
2015-Jan-23 16:24N 58°22' E 005°33'5 4.9
2015-Jan-23 15:26N 58°26' E 005°31'5 4.8
2015-Jan-23 14:27N 58°31' E 005°29'11 4.8
2015-Jan-23 12:04N 58°42' E 005°24'2 4.8
2015-Jan-23 11:33N 58°45' E 005°23'4 4.4
2015-Jan-23 10:33N 58°49' E 005°21'5 5.2
2015-Jan-23 09:34N 58°54' E 005°21'6 5.6
2015-Jan-23 08:33N 58°60' E 005°19'5 5.2
2015-Jan-23 07:33N 59°05' E 005°19'7 6.6
2015-Jan-23 06:33N 59°11' E 005°20'18 8.1
2015-Jan-23 04:21N 59°29' E 005°13'  
Track history (hours):
 
Tides and Currents Weather Stations Pressure Air Temp Water Temp Dewpoint Dewpoint Depression Visibility Wind Speed Wind Dir Waves Ship Positions

Wilson Gdynia

Last reported at 2015-Jan-29 21:33 UTC. Time now 2015-Jan-29 22:29 UTC.
Position N 53°59' E 008°28'.

Length 88 m; draft 5.6 m.

Type: Cargo ship. MMSI: 314192000.

Date/timePositionNaut miles runAvg speedWind from/ knotsBaromVisibWave heightAir tempDewpointWater temp
2015-Jan-29 21:33N 53°59' E 008°28'1110.6
2015-Jan-29 20:33N 53°53' E 008°43'9 8.6
2015-Jan-29 19:33N 53°51' E 008°57'8 8.1
2015-Jan-29 18:33N 53°53' E 009°10'8 8.0
2015-Jan-29 17:33N 53°49' E 009°22'1010.0
2015-Jan-29 16:33N 53°41' E 009°30'1111.1
2015-Jan-29 15:33N 53°34' E 009°45'6 5.5
2015-Jan-29 14:29N 53°31' E 009°54'0 0.0
2015-Jan-29 13:29N 53°31' E 009°54'0 0.0
2015-Jan-29 12:32N 53°31' E 009°54'0 0.0
2015-Jan-29 11:32N 53°31' E 009°54'0 0.0
2015-Jan-29 10:32N 53°31' E 009°54'0 0.0
2015-Jan-29 09:32N 53°31' E 009°54'0 0.0
2015-Jan-29 08:32N 53°31' E 009°54'0 0.0
2015-Jan-29 07:32N 53°31' E 009°54'0 0.0
2015-Jan-29 06:32N 53°31' E 009°54'0 0.0
2015-Jan-29 05:32N 53°31' E 009°54'0 0.0
2015-Jan-29 04:32N 53°31' E 009°54'0 0.0
2015-Jan-29 03:32N 53°31' E 009°54'0 0.0
2015-Jan-29 02:32N 53°31' E 009°54'0 0.0
2015-Jan-29 01:32N 53°31' E 009°54'0 0.0
2015-Jan-29 00:32N 53°31' E 009°54'0 0.0
2015-Jan-28 23:32N 53°31' E 009°54'0 0.0
2015-Jan-28 22:32N 53°31' E 009°54'0 0.0
2015-Jan-28 21:32N 53°31' E 009°54'0 0.0
2015-Jan-28 20:32N 53°31' E 009°54'0 0.0
2015-Jan-28 19:32N 53°31' E 009°54'0 0.0
2015-Jan-28 18:32N 53°31' E 009°54'0 0.0
2015-Jan-28 17:29N 53°31' E 009°54'0 0.0
2015-Jan-28 16:32N 53°31' E 009°54'0 0.0
2015-Jan-28 15:32N 53°31' E 009°54'0 0.0
2015-Jan-28 14:29N 53°31' E 009°54'0 0.0
2015-Jan-28 13:32N 53°31' E 009°54'0 0.0
2015-Jan-28 12:29N 53°31' E 009°54'0 0.0
2015-Jan-28 11:32N 53°31' E 009°54'0 0.0
2015-Jan-28 10:32N 53°31' E 009°54'0 0.0
2015-Jan-28 09:32N 53°31' E 009°54'0 0.0
2015-Jan-28 08:32N 53°31' E 009°54'0 0.0
2015-Jan-28 07:32N 53°31' E 009°54'0 0.0
2015-Jan-28 06:29N 53°31' E 009°54'0 0.0
2015-Jan-28 05:32N 53°31' E 009°54'0 0.0
2015-Jan-28 04:26N 53°31' E 009°54'0 0.0
2015-Jan-28 03:32N 53°31' E 009°54'0 0.0
2015-Jan-28 02:32N 53°31' E 009°54'0 0.0
2015-Jan-28 01:32N 53°31' E 009°54'0 0.0
2015-Jan-28 00:32N 53°31' E 009°54'0 0.0
2015-Jan-27 23:29N 53°31' E 009°54'0 0.0
2015-Jan-27 22:29N 53°31' E 009°54'0 0.0
2015-Jan-27 21:32N 53°31' E 009°54'0 0.0
2015-Jan-27 20:32N 53°31' E 009°54'0 0.0
2015-Jan-27 19:29N 53°31' E 009°54'0 0.0
2015-Jan-27 18:32N 53°31' E 009°54'0 0.3
2015-Jan-27 17:34N 53°31' E 009°54'9 9.2
2015-Jan-27 16:33N 53°34' E 009°39'8 8.3
2015-Jan-27 15:33N 53°41' E 009°30'9 8.8
2015-Jan-27 14:33N 53°48' E 009°22'9 8.5
2015-Jan-27 13:33N 53°53' E 009°10'9 8.8
2015-Jan-27 12:33N 53°51' E 008°56'8 7.8
2015-Jan-27 11:34N 53°53' E 008°43'8 7.5
2015-Jan-27 10:34N 53°58' E 008°34'9 8.8
2015-Jan-27 09:33N 53°60' E 008°19'1010.4
2015-Jan-27 08:33N 53°57' E 008°02'9 8.8
2015-Jan-27 07:33N 53°49' E 008°08'1413.8
2015-Jan-27 06:33N 53°39' E 008°24'10 9.7
2015-Jan-27 05:34N 53°30' E 008°31'1010.3
2015-Jan-27 04:33N 53°20' E 008°30'9 8.9
2015-Jan-27 03:33N 53°11' E 008°32'8 7.5
2015-Jan-27 02:33N 53°07' E 008°43'0 0.4
2015-Jan-27 01:33N 53°07' E 008°43'0 0.0
2015-Jan-27 00:33N 53°07' E 008°43'0 0.0
2015-Jan-26 23:33N 53°07' E 008°43'0 0.0
2015-Jan-26 22:33N 53°07' E 008°43'0 0.0
2015-Jan-26 21:33N 53°07' E 008°43'0 0.0
2015-Jan-26 20:33N 53°07' E 008°43'0 0.0
2015-Jan-26 19:33N 53°07' E 008°43'0 0.0
2015-Jan-26 18:33N 53°07' E 008°43'0 0.0
2015-Jan-26 17:33N 53°07' E 008°43'0 0.0
2015-Jan-26 16:33N 53°07' E 008°43'0 0.0
2015-Jan-26 15:33N 53°07' E 008°43'0 0.0
2015-Jan-26 14:33N 53°07' E 008°43'0 0.0
2015-Jan-26 13:33N 53°07' E 008°43'0 0.0
2015-Jan-26 12:33N 53°07' E 008°43'0 0.0
2015-Jan-26 11:33N 53°07' E 008°43'0 0.0
2015-Jan-26 10:33N 53°07' E 008°43'0 0.0
2015-Jan-26 09:33N 53°07' E 008°43'0 0.0
2015-Jan-26 08:33N 53°07' E 008°43'0 0.0
2015-Jan-26 07:33N 53°07' E 008°43'0 0.0
2015-Jan-26 06:33N 53°07' E 008°43'0 0.0
2015-Jan-26 05:33N 53°07' E 008°43'0 0.0
2015-Jan-26 04:33N 53°07' E 008°43'0 0.0
2015-Jan-26 03:33N 53°07' E 008°43'0 0.0
2015-Jan-26 02:33N 53°07' E 008°43'0 0.0
2015-Jan-26 01:33N 53°07' E 008°43'0 0.0
2015-Jan-26 00:33N 53°07' E 008°43'0 0.0
2015-Jan-25 23:33N 53°07' E 008°43'0 0.0
2015-Jan-25 22:33N 53°07' E 008°43'0 0.0
2015-Jan-25 21:33N 53°07' E 008°43'0 0.0
2015-Jan-25 20:33N 53°07' E 008°43'0 0.0
2015-Jan-25 19:33N 53°07' E 008°43'0 0.0
2015-Jan-25 18:33N 53°07' E 008°43'0 0.0
2015-Jan-25 17:33N 53°07' E 008°43'0 0.0
2015-Jan-25 16:33N 53°07' E 008°43'1 1.2
2015-Jan-25 15:33N 53°07' E 008°41'1010.3
2015-Jan-25 14:33N 53°15' E 008°29'1212.0
2015-Jan-25 13:33N 53°27' E 008°29'1110.7
2015-Jan-25 12:33N 53°37' E 008°28'1313.5
2015-Jan-25 11:33N 53°46' E 008°11'1212.3
2015-Jan-25 10:33N 53°52' E 007°53'1110.2
2015-Jan-25 09:31N 53°58' E 007°38'1010.3
2015-Jan-25 08:33N 54°07' E 007°30'10 9.8
2015-Jan-25 07:34N 54°15' E 007°23'8 8.1
2015-Jan-25 06:33N 54°23' E 007°19'7 7.2
2015-Jan-25 05:34N 54°30' E 007°16'7 7.4
2015-Jan-25 04:33N 54°37' E 007°13'10 7.3
2015-Jan-25 03:14N 54°47' E 007°08'5 7.6
2015-Jan-25 02:34N 54°52' E 007°06'8 7.9
2015-Jan-25 01:33N 54°59' E 007°02'8 8.2
2015-Jan-25 00:33N 55°07' E 006°59'8 8.2
2015-Jan-24 23:34N 55°15' E 006°55'8 8.1
2015-Jan-24 22:33N 55°23' E 006°52'8 7.8
2015-Jan-24 21:33N 55°31' E 006°48'8 7.5
2015-Jan-24 20:30N 55°38' E 006°45'150 6.4
2015-Jan-23 21:07N 58°04' E 005°42'15 3.8
2015-Jan-23 17:11N 58°18' E 005°34'4 4.7
2015-Jan-23 16:24N 58°22' E 005°33'5 4.9
2015-Jan-23 15:26N 58°26' E 005°31'5 4.8
2015-Jan-23 14:27N 58°31' E 005°29'11 4.8
2015-Jan-23 12:04N 58°42' E 005°24'2 4.8
2015-Jan-23 11:33N 58°45' E 005°23'4 4.4
2015-Jan-23 10:33N 58°49' E 005°21'5 5.2
2015-Jan-23 09:34N 58°54' E 005°21'6 5.6
2015-Jan-23 08:33N 58°60' E 005°19'5 5.2
2015-Jan-23 07:33N 59°05' E 005°19'7 6.6
2015-Jan-23 06:33N 59°11' E 005°20'18 8.1
2015-Jan-23 04:21N 59°29' E 005°13'  

Dump ship's entire track history